This is the latest recevied weather packets stored in our database for station/object KD7YDD. If no packets are shown the sender has not sent any weather packets the latest 10 day(s).
| Time | Temp. | Humidity | Pressure | Rain* | Wind** | Luminosity | Snow |
|---|---|---|---|---|---|---|---|
| 1778243476 | 10.56° C | 91% | 1018.5 hPa | 0 mm | - | 0 W/m² | - |
| 1778235076 | 10.56° C | 90% | 1018.6 hPa | 0 mm | - | 0 W/m² | - |
| 1778234476 | 10.56° C | 90% | 1018.6 hPa | 0 mm | - | 0 W/m² | - |
| 1778219497 | 11.11° C | 86% | 1018.4 hPa | 0 mm | - | 0 W/m² | - |
| 1778217076 | 11.67° C | 86% | 1018 hPa | 0 mm | - | 0 W/m² | - |
| 1778214676 | 12.22° C | 87% | 1018 hPa | 0 mm | - | 0 W/m² | - |
| 1778213476 | 12.22° C | 87% | 1017.6 hPa | 0 mm | - | 0 W/m² | - |
| 1778208680 | 15° C | 81% | 1017.2 hPa | 0 mm | - | 0 W/m² | - |
| 1778200876 | 18.89° C | 72% | 1017.2 hPa | 0 mm | - | 33 W/m² | - |
| 1778198475 | 19.44° C | 71% | 1017.3 hPa | 0 mm | - | 53 W/m² | - |
| 1778196700 | 19.44° C | 69% | 1017.5 hPa | 0 mm | - | 71 W/m² | - |
| 1778194300 | 19.44° C | 68% | 1017.8 hPa | 0 mm | - | 691 W/m² | - |
| 1778193677 | 20.56° C | 67% | 1017.7 hPa | 0 mm | - | 712 W/m² | - |
| 1778191277 | 20.56° C | 67% | 1018 hPa | 0 mm | - | 791 W/m² | - |
| 1778190678 | 21.11° C | 65% | 1018.1 hPa | 0 mm | - | 809 W/m² | - |
| 1778187081 | 21.11° C | 67% | 1018.7 hPa | 0 mm | - | 875 W/m² | - |
| 1778184698 | 20° C | 70% | 1018.7 hPa | 0 mm | - | 882 W/m² | - |
| 1778182277 | 19.44° C | 71% | 1019.2 hPa | 0 mm | - | 863 W/m² | - |
| 1778179277 | 16.11° C | 81% | 1019.6 hPa | 0 mm | - | 60 W/m² | - |
| 1778178677 | 16.11° C | 81% | 1019.7 hPa | 0 mm | - | 62 W/m² | - |
| 1778177483 | 15.56° C | 82% | 1019.9 hPa | 0 mm | - | 209 W/m² | - |
| 1778175677 | 13.89° C | 86% | 1020 hPa | 0 mm | - | 183 W/m² | - |
| 1778173877 | 12.78° C | 89% | 1020.1 hPa | 0 mm | - | 125 W/m² | - |
| 1778170297 | 11.67° C | 90% | 1020.4 hPa | 0 mm | - | 60 W/m² | - |
| 1778164277 | 11.11° C | 90% | 1020.1 hPa | 0 mm | - | 19 W/m² | - |
* Rain latest hour (hover to see other rain measurements)
** Current wind speed in m/s (hover to see current wind gust speed)